Time;durP1;ratioP1;P1;durP2;ratioP2;P2;SDS_P1;SDS_P2;PMS_P1;PMS_P2;Temp;Humidity;BMP_temperature;BMP_pressure;BME280_temperature;BME280_humidity;BME280_pressure;Samples;Min_cycle;Max_cycle;Signal;HPM_P1;HPM_P2
2021/03/22 00:00:45;;;;;;;32.75;3.63;;;;;;;5.94;86.89;101900.88;4978176;28;20057;-76
2021/03/22 00:03:12;;;;;;;28.13;4.82;;;;;;;5.86;87.24;101913.53;4975623;28;20117;-76
2021/03/22 00:05:38;;;;;;;32.03;4.47;;;;;;;5.85;87.27;101906.44;4974593;28;20030;-76
2021/03/22 00:08:04;;;;;;;31.35;3.33;;;;;;;5.92;86.73;101908.06;4950964;28;20531;-76
2021/03/22 00:10:31;;;;;;;29.90;5.13;;;;;;;5.82;87.28;101903.84;4981374;28;20387;-76
2021/03/22 00:12:57;;;;;;;23.55;3.42;;;;;;;5.82;87.25;101898.50;4973068;28;20724;-76
2021/03/22 00:15:25;;;;;;;34.60;4.72;;;;;;;5.91;86.60;101900.97;4957730;28;20049;-75
2021/03/22 00:17:51;;;;;;;29.92;3.05;;;;;;;5.92;86.84;101898.28;4993295;28;20066;-76
2021/03/22 00:20:17;;;;;;;32.95;3.80;;;;;;;5.86;86.89;101902.84;4985115;28;20707;-76
2021/03/22 00:22:43;;;;;;;19.52;3.00;;;;;;;5.93;87.25;101896.47;4992363;28;20442;-75
2021/03/22 00:25:10;;;;;;;29.88;3.95;;;;;;;5.88;87.56;101906.38;4966811;28;20045;-75
2021/03/22 00:27:35;;;;;;;26.33;2.70;;;;;;;5.84;87.91;101902.00;4971206;28;20049;-76
2021/03/22 00:30:01;;;;;;;32.97;2.97;;;;;;;5.86;87.65;101892.19;4976189;28;20030;-76
2021/03/22 00:32:26;;;;;;;32.63;3.78;;;;;;;5.81;88.27;101894.97;4992537;28;20622;-76
2021/03/22 00:34:52;;;;;;;29.92;3.80;;;;;;;5.85;88.03;101888.66;4975190;28;20035;-76
2021/03/22 00:37:20;;;;;;;26.10;2.92;;;;;;;5.91;87.58;101892.97;4993032;28;20042;-76
2021/03/22 00:39:46;;;;;;;29.33;3.17;;;;;;;6.02;87.73;101889.13;4992132;28;20487;-76
2021/03/22 00:42:11;;;;;;;33.97;4.80;;;;;;;5.92;87.96;101882.28;4973157;28;20057;-76
2021/03/22 00:44:36;;;;;;;27.90;3.90;;;;;;;5.90;87.97;101889.44;4976403;28;20125;-76
2021/03/22 00:47:02;;;;;;;31.20;3.22;;;;;;;5.84;88.48;101886.03;4975540;28;20042;-76
2021/03/22 00:49:27;;;;;;;31.70;3.42;;;;;;;5.84;88.81;101884.25;4991026;28;20126;-76
2021/03/22 00:51:53;;;;;;;33.75;4.05;;;;;;;5.88;89.19;101888.59;4992239;28;20038;-76
2021/03/22 00:54:18;;;;;;;24.63;3.47;;;;;;;5.82;89.59;101886.06;4990619;28;20026;-76
2021/03/22 00:56:44;;;;;;;32.92;3.38;;;;;;;5.84;89.64;101884.25;4983748;28;20076;-76
2021/03/22 00:59:09;;;;;;;29.77;3.10;;;;;;;5.80;90.04;101881.69;4972819;28;20117;-76
2021/03/22 01:01:35;;;;;;;26.13;2.80;;;;;;;5.74;90.84;101887.19;4981506;28;20038;-76
2021/03/22 01:04:01;;;;;;;22.80;4.65;;;;;;;5.81;90.79;101883.41;4990034;28;20785;-76
2021/03/22 01:06:26;;;;;;;23.20;2.72;;;;;;;5.75;90.68;101883.59;4993795;28;20493;-75
2021/03/22 01:08:51;;;;;;;30.25;3.70;;;;;;;5.61;91.20;101871.53;4959228;28;20022;-75
2021/03/22 01:11:19;;;;;;;25.48;2.90;;;;;;;5.61;91.73;101876.84;4998347;28;20439;-75
2021/03/22 01:14:04;;;;;;;27.80;3.88;;;;;;;5.64;91.57;101868.75;4989434;28;20034;-76
2021/03/22 01:16:33;;;;;;;27.85;3.40;;;;;;;5.67;91.14;101865.16;4979632;28;20081;-76
2021/03/22 01:19:01;;;;;;;27.27;4.10;;;;;;;5.56;91.32;101867.19;4991357;28;20034;-75
2021/03/22 01:21:40;;;;;;;37.65;3.92;;;;;;;5.48;91.86;101862.09;4990546;28;20026;-75
2021/03/22 01:24:07;;;;;;;32.25;5.00;;;;;;;5.49;92.19;101861.16;4958970;28;20034;-76
2021/03/22 01:26:35;;;;;;;28.05;3.33;;;;;;;5.46;92.33;101869.22;4980587;28;20034;-76
2021/03/22 01:29:06;;;;;;;23.08;3.47;;;;;;;5.31;92.85;101866.94;4989883;28;20421;-76
2021/03/22 01:31:32;;;;;;;33.33;3.97;;;;;;;5.32;93.28;101866.03;4992491;28;20029;-76
2021/03/22 01:33:57;;;;;;;33.85;3.20;;;;;;;5.37;93.65;101860.59;4979645;28;20442;-75
2021/03/22 01:36:29;;;;;;;32.78;3.92;;;;;;;5.25;94.13;101856.44;4974681;28;20038;-76
2021/03/22 01:38:57;;;;;;;29.02;4.85;;;;;;;5.23;94.30;101863.59;4967722;28;20444;-76
2021/03/22 01:41:51;;;;;;;29.65;4.22;;;;;;;5.19;94.88;101853.91;4986763;28;20035;-76
2021/03/22 01:44:25;;;;;;;;;;;;;;;5.21;95.16;101846.78;4971416;28;20390;-76
2021/03/22 01:46:55;;;;;;;39.60;4.28;;;;;;;5.13;95.54;101846.09;4988283;28;19917;-76
2021/03/22 01:49:24;;;;;;;29.88;3.13;;;;;;;5.14;95.90;101847.84;4975771;28;20497;-76
2021/03/22 01:51:51;;;;;;;24.45;3.70;;;;;;;5.04;96.66;101846.31;4991445;28;20039;-76
2021/03/22 01:54:17;;;;;;;31.08;5.30;;;;;;;5.05;96.84;101848.06;4958037;28;20038;-76
2021/03/22 01:56:53;;;;;;;46.45;4.53;;;;;;;4.92;97.49;101846.59;4987508;28;20952;-75
2021/03/22 01:59:27;;;;;;;32.88;5.95;;;;;;;4.92;98.29;101841.28;4968320;28;20039;-76
2021/03/22 02:01:59;;;;;;;37.50;5.65;;;;;;;4.96;98.48;101848.28;4985489;28;20496;-76
2021/03/22 02:04:25;;;;;;;43.33;5.30;;;;;;;4.92;99.17;101847.47;4958658;28;20080;-76
2021/03/22 02:06:51;;;;;;;42.63;4.88;;;;;;;4.87;99.75;101844.94;4960769;28;20038;-76
2021/03/22 02:09:16;;;;;;;41.15;5.28;;;;;;;4.91;99.90;101839.53;4971053;28;20622;-76
2021/03/22 02:11:42;;;;;;;31.95;4.50;;;;;;;4.88;100.00;101846.66;4986086;28;20495;-76
2021/03/22 02:14:10;;;;;;;30.90;3.80;;;;;;;4.80;100.00;101847.75;4964253;28;20065;-75
2021/03/22 02:16:53;;;;;;;33.80;4.53;;;;;;;4.76;100.00;101841.63;4978976;28;20046;-76
2021/03/22 02:19:47;;;;;;;29.48;3.75;;;;;;;4.72;100.00;101845.25;4979405;28;20145;-76
2021/03/22 02:22:31;;;;;;;;;;;;;;;4.68;100.00;101843.59;4978229;28;20085;-76
2021/03/22 02:25:20;;;;;;;35.75;6.38;;;;;;;4.56;100.00;101843.88;4985988;28;19918;-76
2021/03/22 02:28:21;;;;;;;27.13;4.18;;;;;;;4.65;100.00;101846.31;4981451;28;20034;-76
2021/03/22 02:31:02;;;;;;;30.98;4.07;;;;;;;4.59;100.00;101843.78;4994762;28;20037;-76
2021/03/22 02:33:46;;;;;;;29.13;3.80;;;;;;;4.56;100.00;101842.97;4973631;28;20038;-76
2021/03/22 02:36:15;;;;;;;40.83;4.28;;;;;;;4.61;100.00;101841.97;4988524;28;20027;-76
2021/03/22 02:38:48;;;;;;;34.03;4.03;;;;;;;4.61;100.00;101839.31;4975901;28;20091;-75
2021/03/22 02:41:37;;;;;;;33.15;4.30;;;;;;;4.51;100.00;101839.53;4957394;28;20050;-75
2021/03/22 02:44:09;;;;;;;35.75;4.40;;;;;;;4.56;100.00;101837.66;4967866;28;20030;-76
2021/03/22 02:46:36;;;;;;;24.55;3.53;;;;;;;4.53;100.00;101843.91;4992248;28;20042;-76
2021/03/22 02:49:13;;;;;;;25.85;4.35;;;;;;;4.46;100.00;101834.31;4979423;28;20554;-76
2021/03/22 02:51:53;;;;;;;39.95;4.60;;;;;;;4.53;100.00;101832.41;4978469;28;20038;-76
2021/03/22 02:54:22;;;;;;;25.83;3.80;;;;;;;4.56;100.00;101827.91;4983974;28;20062;-75
2021/03/22 02:56:57;;;;;;;22.52;4.45;;;;;;;4.51;100.00;101828.88;4985680;28;20045;-76
2021/03/22 02:59:29;;;;;;;29.42;4.43;;;;;;;4.55;100.00;101826.16;4979349;28;20084;-75
2021/03/22 03:01:59;;;;;;;34.55;4.28;;;;;;;4.55;100.00;101841.22;4986168;28;20040;-75
2021/03/22 03:04:26;;;;;;;30.70;4.53;;;;;;;4.42;100.00;101835.28;4954876;28;20030;-76
2021/03/22 03:06:58;;;;;;;19.05;3.95;;;;;;;4.49;100.00;101836.91;4972749;28;20571;-76
2021/03/22 03:09:27;;;;;;;35.13;6.15;;;;;;;4.50;100.00;101835.13;4974578;28;20038;-75
2021/03/22 03:11:53;;;;;;;26.80;4.90;;;;;;;4.44;100.00;101838.81;4975736;28;20466;-76
2021/03/22 03:14:19;;;;;;;40.03;4.53;;;;;;;4.49;100.00;101844.91;4968356;28;20760;-76
2021/03/22 03:16:45;;;;;;;43.20;5.22;;;;;;;4.52;100.00;101850.13;4974353;28;20042;-76
2021/03/22 03:19:10;;;;;;;35.20;5.63;;;;;;;4.53;100.00;101838.59;4967371;28;20026;-75
2021/03/22 03:21:36;;;;;;;31.35;4.75;;;;;;;4.61;100.00;101841.97;4975752;28;20065;-76
2021/03/22 03:24:05;;;;;;;29.00;5.50;;;;;;;4.51;100.00;101845.72;4987512;28;20029;-75
2021/03/22 03:26:31;;;;;;;37.83;6.45;;;;;;;4.52;100.00;101841.28;4987782;28;20057;-75
2021/03/22 03:28:56;;;;;;;27.83;5.43;;;;;;;4.54;100.00;101829.72;4979048;28;20064;-75
2021/03/22 03:31:22;;;;;;;34.85;4.45;;;;;;;4.40;100.00;101834.44;4991351;28;20049;-76
2021/03/22 03:33:47;;;;;;;36.30;5.43;;;;;;;4.47;100.00;101841.38;4984890;28;20060;-76
2021/03/22 03:36:12;;;;;;;31.45;4.60;;;;;;;4.41;100.00;101841.50;4992293;28;20049;-75
2021/03/22 03:38:38;;;;;;;31.80;5.07;;;;;;;4.44;100.00;101836.16;4974849;28;20121;-76
2021/03/22 03:41:04;;;;;;;32.63;4.82;;;;;;;4.31;100.00;101843.50;4977865;28;20034;-76
2021/03/22 03:43:29;;;;;;;33.22;5.22;;;;;;;4.28;100.00;101837.34;4978808;28;20126;-76
2021/03/22 03:45:54;;;;;;;33.05;4.47;;;;;;;4.39;100.00;101844.19;4990588;28;20038;-75
2021/03/22 03:48:24;;;;;;;27.70;4.18;;;;;;;4.36;100.00;101846.06;4992112;28;20437;-76
2021/03/22 03:50:54;;;;;;;30.70;4.40;;;;;;;4.24;100.00;101847.19;4988276;28;20088;-76
2021/03/22 03:53:19;;;;;;;30.77;4.47;;;;;;;4.32;100.00;101847.88;4956387;28;20065;-76
2021/03/22 03:55:46;;;;;;;29.20;5.45;;;;;;;4.33;100.00;101846.97;4986177;28;20496;-76
2021/03/22 03:58:11;;;;;;;36.88;5.70;;;;;;;4.28;100.00;101842.69;4962739;28;20057;-76
2021/03/22 04:00:42;;;;;;;42.65;4.82;;;;;;;4.26;100.00;101844.50;4987492;28;20081;-76
2021/03/22 04:03:17;;;;;;;39.45;6.78;;;;;;;4.21;100.00;101854.31;4973098;28;20039;-76
2021/03/22 04:05:43;;;;;;;29.33;5.78;;;;;;;4.17;100.00;101845.56;4987288;28;20031;-75
2021/03/22 04:08:09;;;;;;;29.30;5.65;;;;;;;4.33;100.00;101844.31;4969544;28;20042;-77
2021/03/22 04:10:35;;;;;;;32.00;5.10;;;;;;;4.35;100.00;101831.00;4985000;28;20023;-76
2021/03/22 04:13:00;;;;;;;25.05;6.32;;;;;;;4.30;100.00;101841.75;4958313;28;20554;-75
2021/03/22 04:15:27;;;;;;;38.50;6.68;;;;;;;4.23;100.00;101849.88;4987245;28;20049;-75
2021/03/22 04:17:53;;;;;;;33.58;5.32;;;;;;;4.32;100.00;101849.69;4988820;28;20030;-76
2021/03/22 04:20:19;;;;;;;29.80;7.32;;;;;;;4.31;100.00;101842.63;4971382;28;20073;-75
2021/03/22 04:22:44;;;;;;;29.42;6.40;;;;;;;4.31;100.00;101837.31;4958591;28;20058;-76
2021/03/22 04:25:11;;;;;;;30.38;7.70;;;;;;;4.28;100.00;101832.03;4976670;28;20112;-76
2021/03/22 04:27:36;;;;;;;31.98;7.85;;;;;;;4.29;100.00;101839.13;4975238;28;20066;-76
2021/03/22 04:30:05;;;;;;;37.72;10.75;;;;;;;4.27;100.00;101843.56;4972489;28;20031;-76
2021/03/22 04:32:30;;;;;;;34.72;7.35;;;;;;;4.18;100.00;101842.00;4983653;28;20131;-76
2021/03/22 04:34:55;;;;;;;28.38;5.60;;;;;;;4.34;100.00;101850.53;4958866;28;20054;-76
2021/03/22 04:37:21;;;;;;;38.95;6.90;;;;;;;4.24;100.00;101847.19;4987099;28;20100;-76
2021/03/22 04:39:46;;;;;;;40.08;6.75;;;;;;;4.20;100.00;101844.59;4989290;28;20399;-76
2021/03/22 04:42:12;;;;;;;44.15;8.00;;;;;;;4.22;100.00;101842.81;4991541;28;20030;-76
2021/03/22 04:44:37;;;;;;;41.85;8.23;;;;;;;4.21;100.00;101841.03;4989532;28;20151;-75
2021/03/22 04:47:03;;;;;;;30.95;8.55;;;;;;;4.27;100.00;101852.44;4974495;28;20038;-76
2021/03/22 04:49:29;;;;;;;44.60;6.93;;;;;;;4.36;100.00;101862.00;4992811;28;20018;-76
2021/03/22 04:51:54;;;;;;;36.72;7.50;;;;;;;4.23;100.00;101855.19;4991791;28;20037;-75
2021/03/22 04:54:19;;;;;;;29.55;6.55;;;;;;;4.33;100.00;101854.97;4996866;28;20030;-75
2021/03/22 04:56:45;;;;;;;44.78;6.80;;;;;;;4.41;100.00;101860.13;4993424;28;20034;-77
2021/03/22 04:59:10;;;;;;;39.78;6.72;;;;;;;4.39;100.00;101861.94;4973993;28;20030;-76
2021/03/22 05:01:36;;;;;;;34.80;6.93;;;;;;;4.45;100.00;101861.81;4976030;28;20379;-76
2021/03/22 05:04:01;;;;;;;39.72;8.50;;;;;;;4.38;100.00;101857.53;4973363;28;20031;-74
2021/03/22 05:06:27;;;;;;;34.25;8.52;;;;;;;4.32;100.00;101860.34;4990826;28;20582;-76
2021/03/22 05:08:56;;;;;;;26.58;7.47;;;;;;;4.28;100.00;101869.25;4969462;28;20533;-76
2021/03/22 05:11:21;;;;;;;36.42;6.60;;;;;;;4.26;100.00;101866.63;4990000;28;20046;-76
2021/03/22 05:13:47;;;;;;;41.45;7.57;;;;;;;4.32;100.00;101870.97;4968830;28;20046;-76
2021/03/22 05:16:14;;;;;;;35.85;7.78;;;;;;;4.39;100.00;101864.59;4960761;28;20034;-75
2021/03/22 05:18:40;;;;;;;42.22;9.52;;;;;;;4.36;100.00;101867.31;4989652;28;20152;-76
2021/03/22 05:21:07;;;;;;;42.88;8.32;;;;;;;4.42;100.00;101868.06;4998202;28;20049;-76
2021/03/22 05:23:36;;;;;;;30.35;8.77;;;;;;;4.53;100.00;101859.88;4975661;28;20411;-74
2021/03/22 05:26:02;;;;;;;38.58;8.40;;;;;;;4.50;100.00;101859.94;4972218;28;20419;-75
2021/03/22 05:28:30;;;;;;;36.85;7.38;;;;;;;4.45;100.00;101857.34;4961992;28;20069;-74
2021/03/22 05:30:56;;;;;;;36.83;8.48;;;;;;;4.43;100.00;101856.53;4978367;28;20119;-75
2021/03/22 05:33:23;;;;;;;37.58;6.25;;;;;;;4.41;100.00;101865.44;4957812;28;20038;-75
2021/03/22 05:35:52;;;;;;;31.02;8.07;;;;;;;4.42;100.00;101865.41;4973580;28;20152;-75
2021/03/22 05:38:18;;;;;;;35.35;7.35;;;;;;;4.43;100.00;101864.50;4990712;28;20062;-76
2021/03/22 05:41:06;;;;;;;47.70;8.02;;;;;;;4.52;100.00;101863.44;4960497;28;20061;-75
2021/03/22 05:43:41;;;;;;;39.92;8.15;;;;;;;4.51;100.00;101867.00;4978967;28;20031;-75
2021/03/22 05:46:28;;;;;;;45.10;7.53;;;;;;;4.41;100.00;101865.44;4988954;28;20143;-76
2021/03/22 05:49:04;;;;;;;41.60;8.48;;;;;;;4.42;100.00;101867.19;4989164;28;20374;-76
2021/03/22 05:52:01;;;;;;;33.63;7.45;;;;;;;4.46;100.00;101866.22;4988250;28;20410;-76
2021/03/22 05:54:30;;;;;;;45.38;7.97;;;;;;;4.47;100.00;101871.50;4989298;28;20038;-74
2021/03/22 05:57:14;;;;;;;35.20;9.10;;;;;;;4.52;100.00;101866.09;4981291;28;20128;-76
2021/03/22 05:59:46;;;;;;;40.80;7.50;;;;;;;4.49;100.00;101874.16;4975052;28;20046;-76
2021/03/22 06:02:22;;;;;;;33.50;7.93;;;;;;;4.45;100.00;101867.13;4977950;28;20491;-75
2021/03/22 06:04:53;;;;;;;39.65;8.85;;;;;;;4.40;100.00;101869.00;4985412;28;20034;-76
2021/03/22 06:07:23;;;;;;;30.25;7.72;;;;;;;4.50;100.00;101867.91;4977113;28;20049;-76
2021/03/22 06:10:02;;;;;;;47.65;10.85;;;;;;;4.49;100.00;101871.47;4973647;28;20038;-76
2021/03/22 06:12:28;;;;;;;36.17;9.35;;;;;;;4.45;100.00;101875.09;4989835;28;20038;-76
2021/03/22 06:15:15;;;;;;;40.33;9.18;;;;;;;4.58;100.00;101879.25;4994467;28;20402;-76
2021/03/22 06:17:47;;;;;;;44.13;8.95;;;;;;;4.48;100.00;101880.38;4971789;28;20034;-76
2021/03/22 06:20:21;;;;;;;35.22;9.65;;;;;;;4.53;100.00;101881.13;4985200;28;20118;-76
2021/03/22 06:22:46;;;;;;;37.25;8.75;;;;;;;4.71;100.00;101883.41;4987227;28;20128;-76
2021/03/22 06:25:20;;;;;;;36.70;8.43;;;;;;;4.66;100.00;101882.63;4981035;28;20042;-75
2021/03/22 06:27:51;;;;;;;42.85;8.63;;;;;;;4.77;100.00;101891.25;4967191;28;20545;-75
2021/03/22 06:30:23;;;;;;;35.92;9.15;;;;;;;4.70;100.00;101889.63;4983843;28;20122;-75
2021/03/22 06:32:53;;;;;;;37.10;8.35;;;;;;;4.82;100.00;101889.34;4988753;28;20065;-75
2021/03/22 06:35:31;;;;;;;44.53;8.68;;;;;;;5.09;100.00;101902.97;4988482;28;20046;-75
2021/03/22 06:37:56;;;;;;;40.20;9.90;;;;;;;5.17;100.00;101898.34;4970828;28;20055;-75
2021/03/22 06:40:25;;;;;;;38.03;9.57;;;;;;;5.25;100.00;101899.91;4970636;28;20097;-76
2021/03/22 06:43:12;;;;;;;32.28;8.35;;;;;;;5.33;100.00;101896.19;4993984;28;20402;-76
2021/03/22 06:45:49;;;;;;;39.03;8.32;;;;;;;5.43;100.00;101901.25;4973859;28;20037;-76
2021/03/22 06:48:27;;;;;;;31.88;8.88;;;;;;;5.57;100.00;101901.78;4987829;28;20065;-75
2021/03/22 06:51:14;;;;;;;36.63;8.02;;;;;;;5.86;100.00;101909.06;4975716;28;20092;-75
2021/03/22 06:53:46;;;;;;;25.60;8.07;;;;;;;6.31;100.00;101912.31;4971064;28;20441;-76
2021/03/22 06:56:19;;;;;;;37.40;8.80;;;;;;;6.63;97.53;101913.19;4976994;28;20076;-76
2021/03/22 06:58:47;;;;;;;33.03;7.80;;;;;;;7.01;94.99;101912.94;4975952;28;20902;-76
2021/03/22 07:01:22;;;;;;;35.88;8.32;;;;;;;6.87;94.31;101924.00;4986171;28;20069;-75
2021/03/22 07:03:50;;;;;;;41.05;9.25;;;;;;;7.35;92.41;101926.09;4972743;28;20042;-74
2021/03/22 07:06:24;;;;;;;37.78;9.27;;;;;;;7.72;90.25;101928.44;4971774;28;20096;-75
2021/03/22 07:08:52;;;;;;;30.38;8.65;;;;;;;8.04;88.44;101917.53;4990282;28;20033;-76
2021/03/22 07:11:20;;;;;;;30.67;7.95;;;;;;;8.33;86.11;101923.72;4948703;28;20062;-76
2021/03/22 07:13:53;;;;;;;31.67;8.48;;;;;;;8.44;85.04;101921.50;4985921;28;20034;-76
2021/03/22 07:16:20;;;;;;;;;;;;;;;8.71;84.17;101920.47;4992338;28;20037;-76
2021/03/22 07:19:17;;;;;;;28.75;8.18;;;;;;;9.23;82.20;101923.84;4986938;28;19994;-76
2021/03/22 07:21:57;;;;;;;32.30;7.90;;;;;;;9.94;78.32;101920.00;4969038;28;20561;-76
2021/03/22 07:24:46;;;;;;;19.45;6.55;;;;;;;10.45;74.75;101917.75;4969921;28;20030;-76
2021/03/22 07:27:18;;;;;;;22.63;7.40;;;;;;;10.59;73.09;101929.69;4976110;28;20403;-76
2021/03/22 07:29:50;;;;;;;22.42;6.30;;;;;;;10.57;73.04;101926.19;4987296;28;20039;-76
2021/03/22 07:32:44;;;;;;;30.90;6.72;;;;;;;10.74;72.41;101926.34;4985828;28;20479;-76
2021/03/22 07:35:42;;;;;;;23.15;6.90;;;;;;;10.29;73.30;101932.81;4986208;28;20033;-76
2021/03/22 07:38:24;;;;;;;19.88;5.13;;;;;;;10.45;73.27;101935.69;4972726;28;20137;-76
2021/03/22 07:40:59;;;;;;;21.77;6.00;;;;;;;10.38;72.67;101940.44;4957582;28;20042;-76
2021/03/22 07:44:06;;;;;;;24.52;7.22;;;;;;;10.72;72.55;101936.25;4976036;28;20081;-76
2021/03/22 07:46:57;;;;;;;30.73;6.38;;;;;;;10.58;72.72;101941.38;4983155;28;20042;-76
2021/03/22 07:49:44;;;;;;;28.67;6.50;;;;;;;10.65;72.63;101942.84;4970742;28;20034;-76
2021/03/22 07:52:19;;;;;;;24.40;6.93;;;;;;;10.67;71.19;101951.72;4991007;28;20398;-76
2021/03/22 07:55:06;;;;;;;24.10;6.35;;;;;;;10.63;72.84;101939.34;4972784;28;20046;-75
2021/03/22 07:57:50;;;;;;;23.58;6.63;;;;;;;10.77;72.96;101947.66;4985619;28;20077;-75
2021/03/22 08:00:29;;;;;;;21.85;5.72;;;;;;;11.22;71.42;101945.53;4971072;28;20467;-75
2021/03/22 08:03:13;;;;;;;29.73;6.70;;;;;;;10.95;71.34;101952.19;4970620;28;20125;-76
2021/03/22 08:06:13;;;;;;;35.33;9.50;;;;;;;11.51;68.83;101956.69;4969196;28;20034;-76
2021/03/22 08:08:54;;;;;;;26.38;6.15;;;;;;;10.89;69.80;101953.34;4950862;28;20030;-76
2021/03/22 08:11:52;;;;;;;19.35;6.05;;;;;;;10.48;72.72;101939.13;4982222;28;20061;-76
2021/03/22 08:14:34;;;;;;;24.13;6.30;;;;;;;10.08;74.71;101947.09;4986385;28;20050;-75
2021/03/22 08:17:37;;;;;;;26.02;6.28;;;;;;;9.58;77.06;101941.16;4985435;28;20084;-75
2021/03/22 08:20:19;;;;;;;26.40;6.80;;;;;;;9.16;78.19;101954.47;4973642;28;20042;-76
2021/03/22 08:23:09;;;;;;;22.95;6.38;;;;;;;8.56;81.00;101950.50;4970780;28;20297;-74
2021/03/22 08:25:49;;;;;;;34.20;6.78;;;;;;;8.25;83.33;101952.50;4976489;28;20026;-76
2021/03/22 08:28:27;;;;;;;26.85;6.78;;;;;;;8.11;85.38;101947.59;4975130;28;20065;-75
2021/03/22 08:31:03;;;;;;;23.77;8.63;;;;;;;8.05;85.54;101955.84;4987055;28;20130;-75
2021/03/22 08:33:43;;;;;;;22.02;7.18;;;;;;;8.00;86.18;101955.13;4987923;28;20038;-76
2021/03/22 08:37:02;;;;;;;22.23;6.60;;;;;;;8.07;85.85;101960.22;4985183;28;20108;-76
2021/03/22 08:39:36;;;;;;;28.40;7.03;;;;;;;8.01;86.55;101951.53;4920412;28;21535;-76
2021/03/22 08:42:24;;;;;;;23.70;5.90;;;;;;;8.04;87.48;101959.44;4948428;28;20129;-75
2021/03/22 08:45:05;;;;;;;35.45;7.53;;;;;;;8.27;87.15;101956.00;4975083;28;20125;-75
2021/03/22 08:47:43;;;;;;;26.27;6.20;;;;;;;8.81;84.22;101964.75;5002971;28;20065;-76
2021/03/22 08:50:19;;;;;;;17.98;5.57;;;;;;;8.73;82.49;101971.28;4990803;28;20048;-76
2021/03/22 08:53:03;;;;;;;26.95;6.90;;;;;;;8.96;81.26;101968.63;4975239;28;20053;-76
2021/03/22 08:55:41;;;;;;;17.20;5.05;;;;;;;8.83;80.48;101976.25;4981674;28;20034;-76
2021/03/22 08:58:16;;;;;;;17.15;3.90;;;;;;;8.61;79.38;101972.63;4993010;28;20361;-76
2021/03/22 09:00:44;;;;;;;17.35;4.72;;;;;;;8.59;81.12;101960.19;4991050;28;20112;-76
2021/03/22 09:03:12;;;;;;;19.27;4.53;;;;;;;8.79;80.67;101966.59;4992113;28;20032;-75
2021/03/22 09:05:39;;;;;;;16.23;4.20;;;;;;;8.70;79.96;101969.59;4988903;28;20030;-76
2021/03/22 09:08:35;;;;;;;17.13;4.55;;;;;;;8.56;79.46;101974.59;4956115;28;20383;-77
2021/03/22 09:11:43;;;;;;;26.50;4.95;;;;;;;8.62;82.11;101974.38;4967120;28;20061;-76
2021/03/22 09:14:09;;;;;;;19.33;5.60;;;;;;;9.17;78.32;101966.94;4939898;28;20049;-76
2021/03/22 09:16:45;;;;;;;20.20;5.00;;;;;;;9.23;78.30;101972.06;4990698;28;20129;-76
2021/03/22 09:21:37;;;;;;;12.18;3.65;;;;;;;10.29;73.67;101964.16;4998555;28;20198;-76
2021/03/22 09:24:03;;;;;;;10.68;3.17;;;;;;;10.75;70.23;101971.03;4970913;28;20026;-77
2021/03/22 09:26:56;;;;;;;9.48;3.13;;;;;;;10.92;66.57;101977.38;4986801;28;20071;-76
2021/03/22 09:29:34;;;;;;;;;;;;;;;10.77;67.05;101971.84;4972498;28;20044;-76
2021/03/22 09:32:02;;;;;;;19.13;3.53;;;;;;;10.23;68.67;101973.34;4995254;28;19914;-76
2021/03/22 09:34:30;;;;;;;8.65;2.92;;;;;;;9.90;71.75;101970.22;4971059;28;20592;-76
2021/03/22 09:36:56;;;;;;;11.43;2.78;;;;;;;9.91;73.80;101977.34;4993883;28;20026;-77
2021/03/22 09:39:24;;;;;;;11.55;3.47;;;;;;;9.69;74.48;101974.66;4957114;28;20308;-76
2021/03/22 09:42:04;;;;;;;13.75;3.40;;;;;;;9.64;72.66;101979.31;4984617;28;20537;-77
2021/03/22 09:44:52;;;;;;;12.10;3.78;;;;;;;9.44;75.08;101971.22;4976572;28;20331;-76
2021/03/22 09:47:21;;;;;;;8.05;2.70;;;;;;;9.51;75.05;101974.50;4939971;28;20141;-76
2021/03/22 09:50:00;;;;;;;12.02;2.70;;;;;;;9.45;73.75;101975.63;4985838;28;20034;-78
2021/03/22 09:52:27;;;;;;;11.70;3.47;;;;;;;9.43;74.05;101976.66;4975287;28;20037;-76
2021/03/22 09:54:53;;;;;;;10.80;3.15;;;;;;;9.34;75.31;101975.19;4981939;28;20038;-77
2021/03/22 09:57:55;;;;;;;17.85;4.25;;;;;;;9.48;75.30;101980.88;4989647;28;20046;-77
2021/03/22 10:00:25;;;;;;;11.57;3.45;;;;;;;9.34;75.42;101980.56;4955316;28;20043;-76
2021/03/22 10:02:57;;;;;;;7.97;3.60;;;;;;;9.39;76.79;101978.56;4966034;28;20491;-76
2021/03/22 10:05:30;;;;;;;12.70;3.55;;;;;;;9.35;77.22;101987.66;4975300;28;20462;-76
2021/03/22 10:08:00;;;;;;;11.98;3.50;;;;;;;9.20;78.07;101983.75;4993820;28;20359;-76
2021/03/22 10:10:34;;;;;;;13.93;4.05;;;;;;;9.15;76.46;101980.38;4968709;28;20415;-76
2021/03/22 10:13:17;;;;;;;14.65;3.30;;;;;;;8.96;76.97;101983.81;4992050;28;20044;-76
2021/03/22 10:15:51;;;;;;;9.98;3.22;;;;;;;8.94;78.11;101975.88;4986447;28;20130;-77
2021/03/22 10:18:27;;;;;;;10.00;2.33;;;;;;;8.88;78.35;101984.13;4991456;28;20042;-76
2021/03/22 10:21:22;;;;;;;14.13;3.40;;;;;;;8.85;74.88;101989.56;4979760;28;20112;-77
2021/03/22 10:23:54;;;;;;;9.75;2.92;;;;;;;8.81;75.70;101990.63;4970141;28;20506;-75
2021/03/22 10:26:36;;;;;;;13.57;2.70;;;;;;;8.80;75.55;101988.88;4987744;28;20026;-76
2021/03/22 10:29:22;;;;;;;15.35;3.55;;;;;;;8.86;77.04;101989.53;4975062;28;20073;-80
2021/03/22 10:31:57;;;;;;;13.27;4.05;;;;;;;8.94;77.30;101994.59;4976059;28;20030;-77
2021/03/22 10:34:26;;;;;;;15.50;3.08;;;;;;;8.88;76.68;102002.88;4993334;28;20511;-77
2021/03/22 10:36:52;;;;;;;10.63;3.63;;;;;;;9.01;78.79;101997.94;4972671;28;20035;-75
2021/03/22 10:39:28;;;;;;;15.18;3.17;;;;;;;8.89;77.70;101989.41;4998590;28;20064;-78
2021/03/22 10:41:54;;;;;;;12.15;3.80;;;;;;;9.05;78.59;101995.06;4992156;28;20533;-76
2021/03/22 10:44:27;;;;;;;13.65;3.75;;;;;;;9.18;77.73;101990.13;4981652;28;20034;-76
2021/03/22 10:47:13;;;;;;;13.48;3.10;;;;;;;9.23;77.34;101993.50;4959310;28;20092;-77
2021/03/22 10:49:40;;;;;;;21.13;4.10;;;;;;;9.20;77.97;101993.59;4975621;28;20034;-77
2021/03/22 10:52:24;;;;;;;12.88;3.28;;;;;;;9.22;77.64;101994.41;4988733;28;20037;-76
2021/03/22 10:54:51;;;;;;;16.65;3.00;;;;;;;9.08;76.62;101999.41;4987482;28;20045;-75
2021/03/22 10:57:41;;;;;;;15.18;3.95;;;;;;;9.00;76.45;101996.19;4977296;28;20034;-76
2021/03/22 11:00:19;;;;;;;13.30;3.97;;;;;;;9.06;76.92;102003.97;4979338;28;20486;-76
2021/03/22 11:02:48;;;;;;;15.48;4.07;;;;;;;9.16;76.75;102006.25;4985582;28;20162;-77
2021/03/22 11:05:17;;;;;;;13.00;3.65;;;;;;;9.02;76.74;102000.53;4981026;28;20141;-76
2021/03/22 11:07:52;;;;;;;13.82;3.55;;;;;;;9.06;78.42;102003.97;4988021;28;20034;-76
2021/03/22 11:10:20;;;;;;;17.88;4.05;;;;;;;9.13;79.34;102011.75;4974611;28;20036;-77
2021/03/22 11:12:48;;;;;;;14.55;3.80;;;;;;;9.06;78.87;102009.34;4989304;28;20038;-77
2021/03/22 11:15:14;;;;;;;18.08;3.20;;;;;;;9.12;78.70;102012.66;4991035;28;20030;-76
2021/03/22 11:17:42;;;;;;;14.50;3.05;;;;;;;9.16;78.80;102013.41;4986758;28;20045;-75
2021/03/22 11:20:08;;;;;;;12.73;3.28;;;;;;;9.15;78.81;102008.97;4971996;28;20061;-77
2021/03/22 11:22:40;;;;;;;12.25;3.08;;;;;;;9.08;77.93;102012.81;4975342;28;20030;-76
2021/03/22 11:25:30;;;;;;;9.13;3.15;;;;;;;9.28;79.09;102023.66;4981651;28;20118;-77
2021/03/22 11:28:00;;;;;;;14.00;3.22;;;;;;;9.23;76.81;102021.16;4984432;28;20026;-76
2021/03/22 11:30:57;;;;;;;9.35;2.60;;;;;;;9.17;77.58;102015.16;4968131;28;20042;-77
2021/03/22 11:33:24;;;;;;;11.25;2.63;;;;;;;9.21;77.00;102006.06;4973979;28;20054;-76
2021/03/22 11:36:02;;;;;;;6.82;2.75;;;;;;;9.35;78.20;102014.47;4985549;28;20084;-77
2021/03/22 11:38:35;;;;;;;14.30;2.47;;;;;;;9.34;77.82;102012.72;4955340;28;20034;-77
2021/03/22 11:41:01;;;;;;;7.00;2.80;;;;;;;9.35;78.07;102017.13;4985712;28;20511;-77
2021/03/22 11:43:34;;;;;;;11.63;2.30;;;;;;;9.42;76.62;102009.72;4987185;28;20048;-77
2021/03/22 11:46:15;;;;;;;8.40;3.35;;;;;;;9.37;77.55;102023.31;4994519;28;20037;-77
2021/03/22 11:48:40;;;;;;;11.77;3.65;;;;;;;9.51;77.52;102018.28;4971876;28;20411;-76
2021/03/22 11:51:13;;;;;;;4.82;2.20;;;;;;;9.49;75.81;102032.69;4985930;28;20158;-77